Time;durP1;ratioP1;P1;durP2;ratioP2;P2;SDS_P1;SDS_P2;PMS_P1;PMS_P2;Temp;Humidity;BMP_temperature;BMP_pressure;BME280_temperature;BME280_humidity;BME280_pressure;Samples;Min_cycle;Max_cycle;Signal;HPM_P1;HPM_P2
2023/12/14 00:00:00;;;;;;;10.55;8.45;;;;;;;3.03;100.00;96447.53;1224725;75;2918921;-75
2023/12/14 00:02:32;;;;;;;8.50;6.85;;;;;;;3.15;100.00;96453.94;1224295;75;2916803;-72
2023/12/14 00:05:06;;;;;;;7.70;6.60;;;;;;;3.17;100.00;96448.84;1224392;75;2922735;-68
2023/12/14 00:07:39;;;;;;;7.30;5.60;;;;;;;3.24;100.00;96459.34;1223836;75;2921185;-69
2023/12/14 00:10:12;;;;;;;6.85;5.55;;;;;;;3.13;100.00;96457.13;1223720;75;2921149;-72
2023/12/14 00:12:48;;;;;;;7.00;6.10;;;;;;;3.13;100.00;96462.53;1224558;75;2924809;-70
2023/12/14 00:15:21;;;;;;;13.55;10.55;;;;;;;2.76;100.00;96459.88;1224540;75;2917913;-71
2023/12/14 00:17:54;;;;;;;17.20;13.80;;;;;;;2.77;100.00;96469.50;1224124;75;2917106;-69
2023/12/14 00:20:27;;;;;;;14.20;11.65;;;;;;;2.82;100.00;96470.09;1225352;75;2913715;-71
2023/12/14 00:23:00;;;;;;;12.40;10.80;;;;;;;3.05;100.00;96479.50;1222715;75;2919606;-70
2023/12/14 00:25:32;;;;;;;10.15;9.00;;;;;;;3.19;100.00;96482.31;1224893;75;2912514;-71
2023/12/14 00:28:08;;;;;;;9.05;7.70;;;;;;;3.16;100.00;96485.22;1223889;75;2921597;-72
2023/12/14 00:30:41;;;;;;;7.30;6.50;;;;;;;3.26;100.00;96488.63;1225175;75;2923434;-72
2023/12/14 00:33:14;;;;;;;8.65;6.30;;;;;;;3.28;100.00;96486.22;1224106;75;2936153;-70
2023/12/14 00:35:47;;;;;;;6.60;5.05;;;;;;;3.32;100.00;96486.81;1225050;75;2916653;-71
2023/12/14 00:38:19;;;;;;;5.50;4.70;;;;;;;3.25;100.00;96495.22;1223794;75;2937877;-67
2023/12/14 00:40:52;;;;;;;5.90;4.85;;;;;;;3.20;100.00;96483.84;1224908;75;2916854;-70
2023/12/14 00:43:28;;;;;;;6.70;5.50;;;;;;;3.18;100.00;96493.63;1221314;75;3088869;-72
2023/12/14 00:46:00;;;;;;;5.90;5.00;;;;;;;3.28;100.00;96499.75;1223500;75;2925513;-71
2023/12/14 00:48:33;;;;;;;5.70;4.50;;;;;;;3.29;100.00;96493.88;1224865;75;2921230;-70
2023/12/14 00:51:07;;;;;;;5.80;4.80;;;;;;;3.28;100.00;96497.78;1225375;75;2920732;-72
2023/12/14 00:53:39;;;;;;;4.60;3.90;;;;;;;3.34;100.00;96501.41;1223490;75;2927574;-73
2023/12/14 00:56:13;;;;;;;5.35;4.05;;;;;;;3.34;100.00;96498.69;1224577;75;2921251;-68
2023/12/14 00:58:48;;;;;;;5.60;3.90;;;;;;;3.40;100.00;96499.56;1224754;75;2921470;-70
2023/12/14 01:01:21;;;;;;;4.40;3.50;;;;;;;3.38;100.00;96504.66;1222186;75;2937377;-72
2023/12/14 01:03:54;;;;;;;4.30;3.90;;;;;;;3.31;100.00;96499.56;1223627;75;2918289;-67
2023/12/14 01:06:27;;;;;;;4.35;3.95;;;;;;;3.42;100.00;96512.63;1224882;75;2924927;-71
2023/12/14 01:09:00;;;;;;;4.35;3.70;;;;;;;3.44;100.00;96506.75;1225536;75;2924776;-70
2023/12/14 01:11:32;;;;;;;3.95;3.50;;;;;;;3.41;100.00;96505.72;1223553;75;2919917;-70
2023/12/14 01:14:08;;;;;;;4.10;3.70;;;;;;;3.42;100.00;96512.63;1224590;75;2919994;-71
2023/12/14 01:16:41;;;;;;;3.50;3.05;;;;;;;3.38;100.00;96512.03;1224072;75;2917383;-73
2023/12/14 01:19:14;;;;;;;3.60;3.10;;;;;;;3.37;100.00;96514.00;1225433;75;2919325;-73
2023/12/14 01:21:47;;;;;;;4.20;3.40;;;;;;;3.32;100.00;96522.72;1225397;75;2918279;-72
2023/12/14 01:24:19;;;;;;;4.40;4.00;;;;;;;3.38;100.00;96512.78;1224934;75;2926434;-72
2023/12/14 01:26:52;;;;;;;4.50;3.90;;;;;;;3.32;100.00;96519.25;1223986;75;2951319;-74
2023/12/14 01:29:28;;;;;;;4.90;4.20;;;;;;;3.44;100.00;96528.41;1225633;75;2887245;-69
2023/12/14 01:32:01;;;;;;;4.45;3.85;;;;;;;3.40;100.00;96523.16;1224787;75;2924044;-69
2023/12/14 01:34:33;;;;;;;3.80;3.15;;;;;;;3.47;100.00;96528.25;1225195;75;2914577;-70
2023/12/14 01:37:06;;;;;;;4.40;3.70;;;;;;;3.44;100.00;96531.09;1224770;75;2920761;-73
2023/12/14 01:39:39;;;;;;;4.45;3.50;;;;;;;3.44;100.00;96531.88;1225346;75;2889660;-71
2023/12/14 01:42:12;;;;;;;4.20;3.65;;;;;;;3.47;100.00;96532.91;1223822;75;2920124;-71
2023/12/14 01:44:48;;;;;;;3.20;2.90;;;;;;;3.37;100.00;96534.91;1223981;75;2918508;-71
2023/12/14 01:47:21;;;;;;;4.90;4.40;;;;;;;3.32;100.00;96530.84;1224033;75;2953360;-73
2023/12/14 01:49:54;;;;;;;6.00;4.85;;;;;;;3.22;100.00;96536.72;1224804;75;2918602;-68
2023/12/14 01:52:27;;;;;;;6.80;5.40;;;;;;;3.07;100.00;96540.03;1224998;75;2921354;-70
2023/12/14 01:55:02;;;;;;;8.50;6.20;;;;;;;3.04;100.00;96535.53;1224481;75;2927691;-70
2023/12/14 01:57:35;;;;;;;9.50;7.60;;;;;;;2.98;100.00;96532.72;1224580;75;2927111;-71
2023/12/14 02:00:18;;;;;;;9.85;7.85;;;;;;;3.15;100.00;96535.84;1224643;75;2929592;-72
2023/12/14 02:02:51;;;;;;;9.90;7.35;;;;;;;3.20;100.00;96545.31;1224277;75;2921312;-73
2023/12/14 02:05:24;;;;;;;14.20;10.35;;;;;;;2.89;100.00;96554.34;1224404;75;2920709;-70
2023/12/14 02:07:57;;;;;;;13.05;10.05;;;;;;;2.71;100.00;96555.06;1224521;75;2915805;-72
2023/12/14 02:10:30;;;;;;;11.70;9.30;;;;;;;2.88;100.00;96555.53;1224254;75;2918601;-71
2023/12/14 02:13:04;;;;;;;9.10;7.35;;;;;;;3.20;100.00;96561.53;1224944;75;2926911;-72
2023/12/14 02:15:40;;;;;;;9.10;7.35;;;;;;;3.19;100.00;96558.06;1223660;75;2923707;-72
2023/12/14 02:18:13;;;;;;;7.75;6.35;;;;;;;3.11;100.00;96561.53;1225285;75;2915649;-69
2023/12/14 02:20:46;;;;;;;7.30;5.60;;;;;;;3.16;100.00;96567.06;1223322;75;2920499;-71
2023/12/14 02:23:21;;;;;;;6.35;5.00;;;;;;;3.24;100.00;96575.63;1223784;75;2924931;-71
2023/12/14 02:25:54;;;;;;;8.95;7.15;;;;;;;2.94;100.00;96574.59;1224405;75;2936447;-68
2023/12/14 02:28:27;;;;;;;7.45;6.55;;;;;;;2.95;100.00;96576.84;1224839;75;2925702;-70
2023/12/14 02:30:59;;;;;;;9.15;7.60;;;;;;;3.04;100.00;96591.56;1224237;75;2923319;-70
2023/12/14 02:33:32;;;;;;;7.90;6.45;;;;;;;3.22;100.00;96590.81;1223469;75;2930189;-66
2023/12/14 02:36:06;;;;;;;7.85;6.50;;;;;;;3.14;100.00;96593.06;1224787;75;2916779;-68
2023/12/14 02:38:41;;;;;;;7.15;5.55;;;;;;;3.27;100.00;96590.19;1224726;75;2926919;-72
2023/12/14 02:41:15;;;;;;;9.85;7.60;;;;;;;2.83;100.00;96588.56;1224623;75;2884289;-71
2023/12/14 02:43:47;;;;;;;9.90;8.40;;;;;;;3.02;100.00;96583.91;1224049;75;2941640;-70
2023/12/14 02:46:20;;;;;;;9.35;6.90;;;;;;;3.15;100.00;96591.84;1224019;75;2923879;-70
2023/12/14 02:48:53;;;;;;;8.45;6.25;;;;;;;3.20;100.00;96588.56;1225066;75;2924496;-74
2023/12/14 02:51:26;;;;;;;7.90;5.75;;;;;;;3.28;100.00;96594.41;1224999;75;2922780;-73
2023/12/14 02:54:02;;;;;;;6.65;5.30;;;;;;;3.30;100.00;96586.59;1222380;75;2920161;-68
2023/12/14 02:56:34;;;;;;;6.85;4.85;;;;;;;3.32;100.00;96598.47;1224216;75;2918394;-72
2023/12/14 02:59:07;;;;;;;4.60;3.90;;;;;;;3.34;100.00;96606.88;1224005;75;2962076;-70
2023/12/14 03:01:40;;;;;;;5.45;4.15;;;;;;;3.32;100.00;96605.81;1224228;75;2921931;-72
2023/12/14 03:04:13;;;;;;;5.25;4.15;;;;;;;3.32;100.00;96609.28;1225109;75;2918548;-70
2023/12/14 03:06:46;;;;;;;5.25;4.20;;;;;;;3.27;100.00;96614.53;1224383;75;2927731;-71
2023/12/14 03:09:21;;;;;;;5.70;4.90;;;;;;;3.16;100.00;96612.31;1224403;75;2921093;-70
2023/12/14 03:11:54;;;;;;;7.40;6.45;;;;;;;3.04;100.00;96610.50;1223725;75;2918815;-71
2023/12/14 03:14:27;;;;;;;8.50;7.25;;;;;;;3.06;100.00;96610.81;1223799;75;2922119;-70
2023/12/14 03:17:00;;;;;;;8.60;6.50;;;;;;;3.19;100.00;96617.53;1223657;75;2934627;-70
2023/12/14 03:19:33;;;;;;;7.40;5.90;;;;;;;3.26;100.00;96610.34;1224493;75;2953246;-70
2023/12/14 03:22:06;;;;;;;5.90;4.70;;;;;;;3.26;100.00;96619.19;1223428;75;2919582;-71
2023/12/14 03:24:41;;;;;;;6.45;4.55;;;;;;;3.27;100.00;96609.13;1224565;75;2922191;-70
2023/12/14 03:27:14;;;;;;;6.20;4.85;;;;;;;3.29;100.00;96610.19;1223796;75;2923823;-69
2023/12/14 03:29:47;;;;;;;5.75;4.10;;;;;;;3.24;100.00;96621.59;1224682;75;2919446;-68
2023/12/14 03:32:20;;;;;;;6.00;4.55;;;;;;;3.11;100.00;96618.31;1224267;75;2929330;-70
2023/12/14 03:34:52;;;;;;;6.40;4.65;;;;;;;3.18;100.00;96618.75;1223797;75;2926307;-69
2023/12/14 03:37:25;;;;;;;6.75;4.95;;;;;;;3.22;100.00;96625.97;1224585;75;2935528;-70
2023/12/14 03:40:01;;;;;;;6.95;4.95;;;;;;;3.05;100.00;96622.81;1224434;75;2922467;-72
2023/12/14 03:42:33;;;;;;;6.40;5.00;;;;;;;3.10;100.00;96639.19;1224272;75;2923770;-73
2023/12/14 03:45:07;;;;;;;7.30;5.05;;;;;;;3.13;100.00;96637.53;1221462;75;2956721;-71
2023/12/14 03:47:40;;;;;;;5.85;4.55;;;;;;;3.21;100.00;96638.75;1224371;75;2931314;-70
2023/12/14 03:50:16;;;;;;;5.25;4.40;;;;;;;3.27;100.00;96636.16;1224735;75;2935652;-70
2023/12/14 03:52:48;;;;;;;5.35;4.10;;;;;;;3.19;100.00;96639.19;1224392;75;2931537;-72
2023/12/14 03:55:24;;;;;;;5.00;4.20;;;;;;;3.24;100.00;96640.53;1223728;75;2925077;-72
2023/12/14 03:57:57;;;;;;;12.80;5.35;;;;;;;2.86;100.00;96641.72;1224626;75;2921221;-70
2023/12/14 04:00:30;;;;;;;7.70;6.75;;;;;;;2.93;100.00;96649.53;1224046;75;2924921;-73
2023/12/14 04:03:03;;;;;;;9.05;7.65;;;;;;;2.86;100.00;96647.13;1224203;75;2918888;-72
2023/12/14 04:05:36;;;;;;;10.35;8.15;;;;;;;2.75;100.00;96649.50;1224449;75;2923614;-70
2023/12/14 04:08:09;;;;;;;11.35;8.80;;;;;;;2.69;100.00;96657.44;1222197;75;2995453;-71
2023/12/14 04:10:45;;;;;;;10.35;9.25;;;;;;;2.71;100.00;96654.31;1223684;75;2923629;-71
2023/12/14 04:13:18;;;;;;;11.75;10.05;;;;;;;2.78;100.00;96667.53;1224028;75;2922718;-71
2023/12/14 04:15:51;;;;;;;9.60;8.60;;;;;;;2.87;100.00;96659.44;1223712;75;2947855;-71
2023/12/14 04:18:24;;;;;;;8.60;7.45;;;;;;;3.08;100.00;96670.56;1224420;75;2923293;-72
2023/12/14 04:20:56;;;;;;;6.90;6.20;;;;;;;3.20;100.00;96673.16;1224243;75;2928590;-71
2023/12/14 04:23:30;;;;;;;5.95;5.25;;;;;;;3.08;100.00;96668.63;1222320;75;2929726;-68
2023/12/14 04:26:06;;;;;;;6.15;5.55;;;;;;;3.15;100.00;96678.38;1191432;75;5488645;-70
2023/12/14 04:28:38;;;;;;;7.60;6.40;;;;;;;3.06;100.00;96681.84;1224196;75;2920864;-72
2023/12/14 04:31:11;;;;;;;8.45;7.05;;;;;;;2.89;100.00;96681.38;1223008;75;2921322;-71
2023/12/14 04:33:44;;;;;;;7.85;7.05;;;;;;;2.94;100.00;96686.19;1223761;75;2920456;-68
2023/12/14 04:36:17;;;;;;;8.70;7.35;;;;;;;3.02;100.00;96689.34;1224035;75;2922366;-67
2023/12/14 04:38:50;;;;;;;8.40;7.60;;;;;;;2.90;100.00;96693.69;1223836;75;2934441;-71
2023/12/14 04:41:25;;;;;;;10.45;8.00;;;;;;;3.10;100.00;96698.69;1223985;75;2933803;-74
2023/12/14 04:43:58;;;;;;;7.70;6.90;;;;;;;3.01;100.00;96701.38;1222265;75;2922316;-73
2023/12/14 04:46:31;;;;;;;7.50;6.65;;;;;;;3.05;100.00;96701.22;1224446;75;2925756;-72
2023/12/14 04:49:04;;;;;;;5.85;5.25;;;;;;;3.25;100.00;96704.25;1224363;75;2922212;-72
2023/12/14 04:51:37;;;;;;;5.85;4.95;;;;;;;3.16;100.00;96701.53;1224663;75;2915314;-70
2023/12/14 04:54:09;;;;;;;6.60;4.70;;;;;;;3.17;100.00;96711.16;1223162;75;2922488;-69
2023/12/14 04:56:45;;;;;;;6.25;5.10;;;;;;;3.07;100.00;96710.38;1223916;75;2914227;-69
2023/12/14 04:59:18;;;;;;;7.20;5.95;;;;;;;3.12;100.00;96712.50;1224963;75;2923017;-70
2023/12/14 05:01:51;;;;;;;6.25;5.50;;;;;;;3.16;100.00;96723.19;1224243;75;2930009;-70
2023/12/14 05:04:24;;;;;;;6.05;5.10;;;;;;;3.15;100.00;96721.66;1224588;75;2917070;-70
2023/12/14 05:06:57;;;;;;;5.45;4.90;;;;;;;3.18;100.00;96726.19;1223974;75;2916510;-70
2023/12/14 05:09:30;;;;;;;5.15;4.50;;;;;;;3.17;100.00;96728.13;1223696;75;2925007;-71
2023/12/14 05:12:06;;;;;;;5.40;4.70;;;;;;;3.19;100.00;96733.84;1223168;75;2927362;-69
2023/12/14 05:14:40;;;;;;;6.00;4.95;;;;;;;3.24;100.00;96735.19;1224329;75;2922010;-70
2023/12/14 05:17:13;;;;;;;5.30;4.60;;;;;;;3.24;100.00;96734.44;1225327;75;2927238;-70
2023/12/14 05:19:45;;;;;;;5.70;4.75;;;;;;;3.24;100.00;96735.19;1224350;75;2928198;-68
2023/12/14 05:22:18;;;;;;;6.80;4.95;;;;;;;3.18;100.00;96743.16;1223319;75;2925411;-70
2023/12/14 05:24:51;;;;;;;6.35;5.20;;;;;;;3.25;100.00;96750.25;1223570;75;2926884;-71
2023/12/14 05:27:27;;;;;;;5.85;5.15;;;;;;;3.15;100.00;96752.19;1223789;75;2934136;-72
2023/12/14 05:30:00;;;;;;;5.20;4.70;;;;;;;3.27;100.00;96760.59;1223147;75;2962318;-69
2023/12/14 05:32:33;;;;;;;6.30;5.55;;;;;;;3.28;100.00;96765.56;1224142;75;2923094;-73
2023/12/14 05:35:06;;;;;;;9.75;7.85;;;;;;;3.09;100.00;96764.03;1224716;75;2936845;-72
2023/12/14 05:37:41;;;;;;;8.35;7.05;;;;;;;3.24;100.00;96767.66;1224267;75;2924790;-71
2023/12/14 05:40:15;;;;;;;7.35;6.55;;;;;;;3.14;100.00;96768.84;1222954;75;2915985;-68
2023/12/14 05:42:50;;;;;;;8.95;7.05;;;;;;;3.22;100.00;96775.47;1223614;75;2936270;-70
2023/12/14 05:45:23;;;;;;;7.35;6.55;;;;;;;3.11;100.00;96775.91;1224672;75;2919603;-68
2023/12/14 05:47:57;;;;;;;11.40;8.80;;;;;;;3.01;100.00;96779.78;1223651;75;2929772;-70
2023/12/14 05:50:29;;;;;;;12.10;10.10;;;;;;;2.93;100.00;96784.69;1223072;75;2935516;-69
2023/12/14 05:53:03;;;;;;;11.20;8.85;;;;;;;3.15;100.00;96791.97;1222686;75;2924253;-71
2023/12/14 05:55:35;;;;;;;16.60;12.75;;;;;;;2.95;100.00;96789.66;1223567;75;2924308;-70
2023/12/14 05:58:11;;;;;;;13.75;10.95;;;;;;;3.08;100.00;96790.31;1224187;75;2913331;-71
2023/12/14 06:00:45;;;;;;;12.05;10.00;;;;;;;3.21;100.00;96787.50;1223435;75;2932214;-71
2023/12/14 06:03:18;;;;;;;10.00;8.00;;;;;;;3.24;100.00;96797.41;1224010;75;2921061;-71
2023/12/14 06:05:50;;;;;;;12.65;10.35;;;;;;;3.09;100.00;96793.78;1222135;75;2923165;-69
2023/12/14 06:08:23;;;;;;;12.50;9.95;;;;;;;3.18;100.00;96799.22;1224207;75;2920756;-74
2023/12/14 06:10:56;;;;;;;9.85;8.25;;;;;;;3.15;100.00;96800.06;1222689;75;2924183;-70
2023/12/14 06:13:31;;;;;;;10.60;8.60;;;;;;;3.13;100.00;96795.13;1223025;75;2935710;-71
2023/12/14 06:16:04;;;;;;;10.25;8.50;;;;;;;3.19;100.00;96809.56;1224018;75;2930555;-67
2023/12/14 06:18:39;;;;;;;9.65;8.00;;;;;;;3.07;100.00;96812.38;1223585;75;2927296;-70
2023/12/14 06:21:14;;;;;;;9.05;7.55;;;;;;;3.05;100.00;96807.41;1223677;75;2926592;-72
2023/12/14 06:23:47;;;;;;;9.10;7.20;;;;;;;3.15;100.00;96811.66;1223359;75;2919949;-72
2023/12/14 06:26:20;;;;;;;7.20;5.95;;;;;;;3.20;100.00;96821.91;1223653;75;2919724;-69
2023/12/14 06:28:58;;;;;;;9.45;7.60;;;;;;;3.06;100.00;96821.72;1225201;75;2820147;-69
2023/12/14 06:31:30;;;;;;;10.45;7.50;;;;;;;3.03;100.00;96833.38;1222306;75;2924271;-71
2023/12/14 06:34:04;;;;;;;11.65;9.25;;;;;;;2.87;100.00;96832.44;1223102;75;2927435;-69
2023/12/14 06:36:37;;;;;;;11.05;8.15;;;;;;;3.06;100.00;96838.69;1224240;75;2921176;-73
2023/12/14 06:39:12;;;;;;;11.15;8.50;;;;;;;2.92;100.00;96844.63;1224224;75;2930489;-70
2023/12/14 06:41:45;;;;;;;11.05;8.05;;;;;;;3.18;100.00;96842.47;1224934;75;2919766;-70
2023/12/14 06:44:21;;;;;;;7.50;6.50;;;;;;;3.20;100.00;96857.06;1223815;75;2960874;-72
2023/12/14 06:46:53;;;;;;;10.00;7.55;;;;;;;2.95;100.00;96846.44;1224281;75;2908355;-72
2023/12/14 06:49:26;;;;;;;10.35;8.20;;;;;;;2.99;100.00;96852.47;1222927;75;2941483;-70
2023/12/14 06:51:59;;;;;;;9.85;7.30;;;;;;;3.19;100.00;96858.25;1223000;75;2932269;-69
2023/12/14 06:54:34;;;;;;;7.95;6.40;;;;;;;3.24;100.00;96862.31;1223737;75;2927404;-71
2023/12/14 06:57:08;;;;;;;7.10;6.30;;;;;;;3.26;100.00;96865.34;1223559;75;2934657;-68
2023/12/14 06:59:43;;;;;;;6.25;5.15;;;;;;;3.32;100.00;96868.19;1222577;67;2923719;-69
2023/12/14 07:02:16;;;;;;;8.50;6.00;;;;;;;3.23;100.00;96868.19;1223708;75;2843922;-70
2023/12/14 07:04:49;;;;;;;5.75;5.15;;;;;;;3.27;100.00;96869.56;1222898;75;2922173;-66
2023/12/14 07:07:22;;;;;;;6.95;5.80;;;;;;;3.19;100.00;96879.13;1222433;75;2940109;-74
2023/12/14 07:09:55;;;;;;;6.45;5.25;;;;;;;3.37;100.00;96879.19;1223917;75;2932360;-69
2023/12/14 07:12:31;;;;;;;5.80;5.20;;;;;;;3.40;100.00;96878.31;1224120;75;2929325;-68
2023/12/14 07:15:07;;;;;;;6.00;5.00;;;;;;;3.38;100.00;96885.34;1223950;75;2938354;-73
2023/12/14 07:17:40;;;;;;;7.30;6.05;;;;;;;3.32;100.00;96887.13;1223145;75;2922677;-65
2023/12/14 07:20:14;;;;;;;5.80;5.05;;;;;;;3.38;100.00;96894.22;1222350;75;2922136;-70
2023/12/14 07:22:48;;;;;;;4.80;4.30;;;;;;;3.51;100.00;96893.34;1223658;75;2926963;-69
2023/12/14 07:25:20;;;;;;;5.20;4.70;;;;;;;3.49;100.00;96901.16;1222472;75;2918632;-70
2023/12/14 07:27:53;;;;;;;4.50;4.10;;;;;;;3.56;100.00;96906.28;1224069;75;2921812;-72
2023/12/14 07:30:29;;;;;;;4.85;4.35;;;;;;;3.58;100.00;96904.69;1223617;75;2925927;-71
2023/12/14 07:33:03;;;;;;;4.85;4.10;;;;;;;3.53;100.00;96909.91;1222288;75;2922533;-71
2023/12/14 07:35:36;;;;;;;4.80;4.10;;;;;;;3.64;100.00;96915.66;1222468;75;2925673;-70
2023/12/14 07:38:09;;;;;;;6.35;5.10;;;;;;;3.58;100.00;96910.09;1223664;75;2922245;-72
2023/12/14 07:40:42;;;;;;;4.75;4.25;;;;;;;3.67;100.00;96914.75;1223020;75;2925058;-71
2023/12/14 07:43:15;;;;;;;4.95;4.45;;;;;;;3.74;100.00;96919.13;1222049;75;2924957;-71
2023/12/14 07:45:55;;;;;;;5.30;4.75;;;;;;;3.77;100.00;96921.69;1203390;75;4606412;-70
2023/12/14 07:48:28;;;;;;;5.55;4.60;;;;;;;3.79;100.00;96926.66;1224138;75;2929230;-72
2023/12/14 07:51:01;;;;;;;5.90;5.30;;;;;;;3.75;100.00;96924.13;1220085;75;2930452;-68
2023/12/14 07:53:34;;;;;;;8.05;6.35;;;;;;;3.71;100.00;96918.09;1221638;75;2928933;-70
2023/12/14 07:56:08;;;;;;;6.85;6.15;;;;;;;3.72;100.00;96930.41;1223073;75;2955528;-74
2023/12/14 07:58:41;;;;;;;8.80;7.45;;;;;;;3.54;100.00;96930.38;1223713;75;2928137;-70
2023/12/14 08:01:17;;;;;;;8.70;7.60;;;;;;;3.68;100.00;96929.03;1224085;75;2909637;-68
2023/12/14 08:03:50;;;;;;;10.80;7.80;;;;;;;3.69;100.00;96935.97;1223306;75;2922687;-73
2023/12/14 08:06:23;;;;;;;9.90;8.05;;;;;;;3.66;100.00;96939.59;1224221;75;2928541;-74
2023/12/14 08:08:57;;;;;;;11.70;8.85;;;;;;;3.51;100.00;96942.84;1224390;75;2937422;-70
2023/12/14 08:11:30;;;;;;;13.45;10.65;;;;;;;3.44;100.00;96942.34;1221174;75;2936004;-72
2023/12/14 08:14:03;;;;;;;11.90;10.65;;;;;;;3.55;100.00;96946.13;1223411;75;2920236;-69
2023/12/14 08:16:39;;;;;;;14.80;12.55;;;;;;;3.66;100.00;96953.13;1223330;75;2919660;-70
2023/12/14 08:19:12;;;;;;;17.90;13.00;;;;;;;3.61;100.00;96967.97;1223273;75;2926025;-72
2023/12/14 08:21:44;;;;;;;14.00;11.50;;;;;;;3.87;100.00;96967.75;1222788;75;2925201;-71
2023/12/14 08:24:17;;;;;;;16.50;11.75;;;;;;;3.58;100.00;96963.44;1223855;75;2924430;-69
2023/12/14 08:26:51;;;;;;;14.35;11.10;;;;;;;3.50;100.00;96975.75;1223121;75;2923414;-73
2023/12/14 08:29:24;;;;;;;13.05;10.75;;;;;;;3.44;100.00;96978.28;1223814;75;2924203;-66
2023/12/14 08:32:00;;;;;;;12.35;10.25;;;;;;;3.67;100.00;96977.00;1222325;75;2930947;-70
2023/12/14 08:34:33;;;;;;;11.05;9.90;;;;;;;3.48;100.00;96981.59;1222072;75;2912199;-69
2023/12/14 08:37:06;;;;;;;13.20;10.70;;;;;;;3.56;100.00;96980.13;1222379;75;2935366;-71
2023/12/14 08:39:39;;;;;;;10.05;9.00;;;;;;;3.67;100.00;96982.41;1223348;75;2923318;-66
2023/12/14 08:42:12;;;;;;;9.60;8.60;;;;;;;3.79;100.00;96984.25;1221447;75;2921540;-68
2023/12/14 08:44:45;;;;;;;14.10;8.45;;;;;;;3.76;100.00;96990.59;1223639;75;2924611;-73
2023/12/14 08:47:20;;;;;;;12.60;9.75;;;;;;;3.79;100.00;96995.09;1223535;75;2923409;-71
2023/12/14 08:49:53;;;;;;;11.55;9.95;;;;;;;3.76;100.00;97014.19;1223107;75;2920173;-69
2023/12/14 08:52:26;;;;;;;12.80;9.70;;;;;;;4.33;100.00;97011.19;1223292;75;2919710;-68
2023/12/14 08:54:59;;;;;;;10.30;8.75;;;;;;;4.14;100.00;97010.41;1223710;75;2921417;-69
2023/12/14 08:57:32;;;;;;;11.15;10.00;;;;;;;4.43;100.00;97013.47;1222758;75;2924172;-74
2023/12/14 09:00:06;;;;;;;10.80;9.70;;;;;;;4.59;100.00;97012.41;1223814;75;2924985;-70
2023/12/14 09:02:45;;;;;;;10.70;9.60;;;;;;;4.61;100.00;97018.13;1224268;75;2921715;-70
2023/12/14 09:05:20;;;;;;;12.45;11.10;;;;;;;4.44;100.00;97017.66;1223705;75;2925604;-72
2023/12/14 09:07:55;;;;;;;13.70;12.20;;;;;;;4.30;100.00;97020.22;1223433;75;2927797;-72
2023/12/14 09:10:31;;;;;;;13.20;10.70;;;;;;;4.76;100.00;97026.41;1222203;75;2925339;-71
2023/12/14 09:13:09;;;;;;;11.65;10.45;;;;;;;5.22;100.00;97031.06;1221740;75;2922302;-70
2023/12/14 09:15:42;;;;;;;12.10;10.80;;;;;;;5.21;100.00;97035.75;1222535;75;2932907;-69
2023/12/14 09:18:18;;;;;;;13.70;12.30;;;;;;;5.56;100.00;97032.66;1222210;75;2924467;-73
2023/12/14 09:20:51;;;;;;;17.35;14.60;;;;;;;5.43;100.00;97043.69;1222636;75;2931245;-71
2023/12/14 09:23:24;;;;;;;13.85;12.10;;;;;;;5.34;100.00;97041.00;1222170;75;2922436;-70
2023/12/14 09:25:58;;;;;;;12.25;10.70;;;;;;;5.51;100.00;97036.75;1223400;75;2941917;-70
2023/12/14 09:28:31;;;;;;;12.15;10.00;;;;;;;5.55;100.00;97040.03;1223295;75;2927899;-73
2023/12/14 09:31:04;;;;;;;13.35;11.10;;;;;;;5.22;100.00;97047.34;1223892;75;2925789;-72
2023/12/14 09:33:40;;;;;;;13.85;11.20;;;;;;;5.24;100.00;97050.34;1223624;75;2928086;-71
2023/12/14 09:36:13;;;;;;;16.65;12.75;;;;;;;4.60;100.00;97049.16;1223344;75;2916449;-73
2023/12/14 09:38:47;;;;;;;12.85;11.55;;;;;;;4.86;100.00;97051.59;1222402;75;2923362;-74
2023/12/14 09:41:20;;;;;;;11.25;9.65;;;;;;;4.90;100.00;97055.66;1224271;75;2920376;-68
2023/12/14 09:43:53;;;;;;;14.05;11.30;;;;;;;4.93;100.00;97055.97;1224922;75;2919882;-71
2023/12/14 09:46:26;;;;;;;14.30;11.50;;;;;;;4.97;100.00;97059.28;1223784;75;2930763;-70
2023/12/14 09:49:03;;;;;;;14.25;11.20;;;;;;;5.08;100.00;97060.34;1223737;75;2926586;-75
2023/12/14 09:51:37;;;;;;;14.45;10.85;;;;;;;5.16;100.00;97055.34;1224458;75;2925535;-68
2023/12/14 09:54:10;;;;;;;14.55;11.15;;;;;;;5.30;100.00;97065.59;1224221;75;2930212;-69
2023/12/14 09:56:52;;;;;;;19.35;15.85;;;;;;;5.61;100.00;97055.72;1224110;75;2916296;-72
2023/12/14 09:59:25;;;;;;;16.45;12.65;;;;;;;5.67;100.00;97070.19;1224112;75;2915969;-68
2023/12/14 10:02:14;;;;;;;14.20;11.15;;;;;;;5.82;100.00;97064.84;1221638;75;2916854;-74
2023/12/14 10:04:51;;;;;;;11.40;9.75;;;;;;;6.50;100.00;97067.91;1224079;75;2919787;-68
2023/12/14 10:07:25;;;;;;;10.10;8.45;;;;;;;6.61;100.00;97068.16;1219813;75;3112153;-71
2023/12/14 10:10:13;;;;;;;9.60;7.90;;;;;;;6.58;100.00;97068.31;1223135;75;2930344;-72
2023/12/14 10:12:56;;;;;;;11.65;8.45;;;;;;;6.52;100.00;97075.59;1222765;75;2915493;-72
2023/12/14 10:15:31;;;;;;;9.55;8.55;;;;;;;6.72;100.00;97075.03;1221495;75;2931269;-72
2023/12/14 10:18:06;;;;;;;11.45;8.75;;;;;;;6.59;100.00;97067.84;1224057;75;2922210;-71
2023/12/14 10:20:42;;;;;;;10.75;9.55;;;;;;;6.31;100.00;97078.13;1223531;75;2934975;-71
2023/12/14 10:23:15;;;;;;;15.70;10.55;;;;;;;6.40;100.00;97077.34;1222813;75;2918608;-70
2023/12/14 10:25:48;;;;;;;13.75;10.25;;;;;;;6.77;100.00;97069.69;1222804;75;2921202;-69
2023/12/14 10:28:21;;;;;;;11.80;8.90;;;;;;;6.75;100.00;97074.09;1221348;75;2923157;-72
2023/12/14 10:30:54;;;;;;;9.20;7.75;;;;;;;7.09;100.00;97086.38;1223348;75;2925438;-71
2023/12/14 10:33:27;;;;;;;10.65;8.85;;;;;;;6.90;100.00;97085.75;1223072;75;2916768;-72
2023/12/14 10:36:03;;;;;;;9.10;7.85;;;;;;;7.03;100.00;97085.53;1223410;75;2920539;-69
2023/12/14 10:38:37;;;;;;;8.50;7.55;;;;;;;7.16;100.00;97082.53;1223465;75;2925406;-69
2023/12/14 10:41:12;;;;;;;8.10;6.40;;;;;;;7.57;100.00;97094.41;1220732;75;2923211;-71
2023/12/14 10:43:48;;;;;;;6.25;5.65;;;;;;;7.72;100.00;97094.44;1222453;75;2926502;-70
2023/12/14 10:46:22;;;;;;;6.10;5.15;;;;;;;8.01;100.00;97090.94;1222067;75;2921856;-73
2023/12/14 10:48:56;;;;;;;5.65;4.75;;;;;;;8.27;100.00;97084.88;1223084;75;2923862;-70
2023/12/14 10:51:32;;;;;;;7.00;5.35;;;;;;;8.14;100.00;97090.63;1223138;75;2927021;-68
2023/12/14 10:54:05;;;;;;;6.70;5.75;;;;;;;8.48;100.00;97093.88;1221952;75;2919832;-71
2023/12/14 10:56:38;;;;;;;8.75;7.05;;;;;;;8.54;100.00;97092.00;1223468;75;2923184;-70
2023/12/14 10:59:11;;;;;;;18.10;14.15;;;;;;;8.61;100.00;97093.53;1223436;75;2929941;-71
2023/12/14 11:01:44;;;;;;;16.60;12.55;;;;;;;8.94;100.00;97095.94;1223343;75;2920300;-72
2023/12/14 11:04:30;;;;;;;14.90;11.05;;;;;;;8.68;100.00;97093.13;1223503;75;2917644;-74
2023/12/14 11:07:05;;;;;;;11.55;8.80;;;;;;;9.15;100.00;97094.72;1224414;75;2916922;-70
2023/12/14 11:09:39;;;;;;;9.45;8.10;;;;;;;9.32;100.00;97096.88;1223933;75;2920389;-72
2023/12/14 11:12:12;;;;;;;8.05;6.75;;;;;;;9.46;100.00;97098.03;1223246;75;2917106;-71
2023/12/14 11:14:46;;;;;;;7.65;5.90;;;;;;;9.45;100.00;97101.97;1223390;75;2929985;-70
2023/12/14 11:17:19;;;;;;;6.40;5.05;;;;;;;9.60;100.00;97100.66;1223639;75;2930212;-71
2023/12/14 11:19:53;;;;;;;6.00;5.20;;;;;;;9.57;100.00;97101.63;1223605;75;2925148;-72
2023/12/14 11:22:32;;;;;;;12.80;8.70;;;;;;;8.72;100.00;97108.09;1223085;75;2895929;-72
2023/12/14 11:25:04;;;;;;;;;;;;;;;8.18;100.00;97110.28;1224601;75;2920095;-75
2023/12/14 11:27:45;;;;;;;18.30;12.00;;;;;;;8.11;100.00;97108.69;1222993;75;2924100;-71
2023/12/14 11:30:20;;;;;;;14.95;10.45;;;;;;;8.08;100.00;97108.88;1222935;75;2929634;-69
2023/12/14 11:32:53;;;;;;;12.90;10.40;;;;;;;8.25;100.00;97107.19;1223083;75;2919069;-72
2023/12/14 11:35:26;;;;;;;13.55;9.15;;;;;;;8.06;100.00;97105.88;1223062;75;2944785;-71
2023/12/14 11:38:05;;;;;;;10.25;8.50;;;;;;;8.25;100.00;97101.72;1223316;75;2921921;-68
2023/12/14 11:40:39;;;;;;;9.80;7.90;;;;;;;8.20;100.00;97109.78;1222986;75;2928696;-73